createdAt,value
2023-05-24T00:00:30.955Z,81.58
2023-05-24T00:02:59.406Z,80.79
2023-05-24T00:05:31.237Z,81.52
2023-05-24T00:08:00.176Z,81.80
2023-05-24T00:10:28.176Z,81.70
2023-05-24T00:12:57.599Z,81.64
2023-05-24T00:15:25.673Z,81.39
2023-05-24T00:17:53.624Z,81.27
2023-05-24T00:20:21.683Z,81.27
2023-05-24T00:22:49.654Z,81.31
2023-05-24T00:25:17.565Z,81.61
2023-05-24T00:27:45.519Z,81.76
2023-05-24T00:30:15.242Z,81.84
2023-05-24T00:32:43.570Z,82.67
2023-05-24T00:35:12.318Z,83.13
2023-05-24T00:37:41.931Z,83.76
2023-05-24T00:40:11.088Z,83.63
2023-05-24T00:42:39.349Z,83.61
2023-05-24T00:45:08.466Z,83.24
2023-05-24T00:47:38.418Z,82.84
2023-05-24T00:50:08.394Z,82.91
2023-05-24T00:52:37.069Z,82.56
2023-05-24T00:55:05.716Z,82.60
2023-05-24T00:57:33.782Z,82.19
2023-05-24T01:00:01.754Z,82.06
2023-05-24T01:02:30.273Z,82.02
2023-05-24T01:05:00.051Z,81.84
2023-05-24T01:07:33.739Z,82.14
2023-05-24T01:10:11.017Z,82.31
2023-05-24T01:12:52.819Z,82.35
2023-05-24T01:15:26.152Z,82.51
2023-05-24T01:18:02.569Z,82.08
2023-05-24T01:20:34.688Z,82.33
2023-05-24T01:23:14.733Z,82.52
2023-05-24T01:25:50.912Z,82.30
2023-05-24T01:28:20.747Z,82.24
2023-05-24T01:30:49.144Z,82.22
2023-05-24T01:33:17.403Z,81.86
2023-05-24T01:35:45.335Z,82.05
2023-05-24T01:38:15.807Z,81.87
2023-05-24T01:40:44.754Z,81.73
2023-05-24T01:43:19.447Z,82.00
2023-05-24T01:46:00.334Z,82.04
2023-05-24T01:48:35.636Z,81.91
2023-05-24T01:51:08.383Z,81.70
2023-05-24T01:53:42.322Z,82.14
2023-05-24T01:56:12.798Z,81.96
2023-05-24T01:58:43.176Z,82.48
2023-05-24T02:01:13.708Z,83.09
2023-05-24T02:03:41.947Z,83.40
2023-05-24T02:06:10.769Z,83.14
2023-05-24T02:08:41.087Z,82.97
2023-05-24T02:11:09.160Z,82.50
2023-05-24T02:13:37.076Z,82.03
2023-05-24T02:16:05.581Z,81.89
2023-05-24T02:18:35.052Z,81.91
2023-05-24T02:21:03.189Z,81.97
2023-05-24T02:23:31.095Z,81.77
2023-05-24T02:26:01.464Z,81.75
2023-05-24T02:28:32.178Z,81.85
2023-05-24T02:31:00.268Z,81.97
2023-05-24T02:33:29.795Z,81.97
2023-05-24T02:35:59.208Z,82.20
2023-05-24T02:38:27.564Z,81.88
2023-05-24T02:40:55.592Z,82.53
2023-05-24T02:43:23.466Z,83.24
2023-05-24T02:45:51.370Z,82.92
2023-05-24T02:48:19.291Z,83.02
2023-05-24T02:50:47.447Z,83.51
2023-05-24T02:53:16.748Z,84.10
2023-05-24T02:55:46.725Z,84.56
2023-05-24T02:58:17.664Z,84.12
2023-05-24T03:00:48.693Z,83.80
2023-05-24T03:03:17.206Z,83.02
2023-05-24T03:05:46.408Z,83.34
2023-05-24T03:08:16.786Z,83.22
2023-05-24T03:10:44.927Z,82.96
2023-05-24T03:13:14.299Z,82.06
2023-05-24T03:15:43.953Z,82.62
2023-05-24T03:18:11.824Z,83.32
2023-05-24T03:20:41.714Z,83.39
2023-05-24T03:23:10.658Z,83.69
2023-05-24T03:25:39.970Z,83.27
2023-05-24T03:28:08.461Z,83.11
2023-05-24T03:30:36.402Z,83.20
2023-05-24T03:33:04.654Z,83.37
2023-05-24T03:35:33.460Z,83.74
2023-05-24T03:38:01.474Z,83.80
2023-05-24T03:40:33.619Z,82.87
2023-05-24T03:43:19.124Z,82.35
2023-05-24T03:45:51.290Z,82.51
2023-05-24T03:48:20.885Z,82.17
2023-05-24T03:50:49.181Z,82.71
2023-05-24T03:53:20.032Z,82.68
2023-05-24T03:55:48.994Z,83.15
2023-05-24T03:58:16.949Z,82.87
2023-05-24T04:00:48.095Z,82.97
2023-05-24T04:03:16.087Z,83.22
2023-05-24T04:05:44.093Z,83.48
2023-05-24T04:08:12.404Z,82.71
2023-05-24T04:10:40.687Z,82.95
2023-05-24T04:13:12.119Z,83.11
2023-05-24T04:15:40.071Z,83.24
2023-05-24T04:18:09.713Z,83.07
2023-05-24T04:20:38.491Z,82.89
2023-05-24T04:23:06.525Z,83.03
2023-05-24T04:25:35.128Z,82.59
2023-05-24T04:28:03.869Z,82.06
2023-05-24T04:30:33.502Z,82.54
2023-05-24T04:33:01.843Z,82.46
2023-05-24T04:35:31.618Z,82.11
2023-05-24T04:37:59.987Z,81.96
2023-05-24T04:40:27.883Z,81.92
2023-05-24T04:42:56.102Z,81.47
2023-05-24T04:45:24.047Z,81.61
2023-05-24T04:47:51.993Z,81.06
2023-05-24T04:50:19.901Z,81.06
2023-05-24T04:52:49.225Z,81.62
2023-05-24T04:55:17.168Z,80.81
2023-05-24T04:57:45.037Z,81.08
2023-05-24T05:00:14.277Z,80.80
2023-05-24T05:02:42.278Z,80.60
2023-05-24T05:05:10.826Z,79.97
2023-05-24T05:07:38.751Z,79.46
2023-05-24T05:10:09.614Z,78.43
2023-05-24T05:12:37.625Z,78.35
2023-05-24T05:15:06.498Z,78.45
2023-05-24T05:17:34.975Z,78.83
2023-05-24T05:20:03.032Z,78.84
2023-05-24T05:22:31.379Z,78.87
2023-05-24T05:24:59.547Z,78.84
2023-05-24T05:27:28.816Z,78.62
2023-05-24T05:29:56.831Z,78.40
2023-05-24T05:32:25.227Z,78.08
2023-05-24T05:34:53.787Z,77.91
2023-05-24T05:37:21.650Z,77.90
2023-05-24T05:39:49.625Z,77.53
2023-05-24T05:42:17.653Z,77.80
2023-05-24T05:44:47.011Z,77.42
2023-05-24T05:47:14.981Z,77.30
2023-05-24T05:49:42.839Z,77.02
2023-05-24T05:52:12.218Z,77.23
2023-05-24T05:54:40.225Z,77.01
2023-05-24T05:57:10.606Z,76.90
2023-05-24T05:59:38.919Z,76.65
2023-05-24T06:02:08.613Z,76.83
2023-05-24T06:04:36.647Z,76.90
2023-05-24T06:07:04.608Z,75.94
2023-05-24T06:09:32.711Z,75.96
2023-05-24T06:12:00.588Z,75.67
2023-05-24T06:14:28.832Z,75.28
2023-05-24T06:16:58.055Z,74.90
2023-05-24T06:19:29.375Z,74.83
2023-05-24T06:21:57.554Z,74.45
2023-05-24T06:24:25.973Z,73.27
2023-05-24T06:26:54.145Z,71.29
2023-05-24T06:29:22.630Z,70.89
2023-05-24T06:31:51.095Z,71.14
2023-05-24T06:34:21.580Z,71.44
2023-05-24T06:36:51.606Z,71.71
2023-05-24T06:39:19.979Z,71.85
2023-05-24T06:41:51.147Z,71.77
2023-05-24T06:44:31.038Z,71.99
2023-05-24T06:46:59.346Z,72.04
2023-05-24T06:49:27.855Z,72.25
2023-05-24T06:51:57.161Z,71.64
2023-05-24T06:54:25.657Z,71.33
2023-05-24T06:56:53.557Z,71.09
2023-05-24T06:59:21.434Z,71.06
2023-05-24T07:01:51.765Z,70.20
2023-05-24T07:04:19.792Z,69.67
2023-05-24T07:06:47.701Z,68.67
2023-05-24T07:09:16.931Z,67.93
2023-05-24T07:11:45.062Z,67.50
2023-05-24T07:14:13.086Z,66.90
2023-05-24T07:16:41.059Z,67.36
2023-05-24T07:19:09.489Z,67.62
2023-05-24T07:21:37.428Z,67.62
2023-05-24T07:24:05.642Z,68.13
2023-05-24T07:26:35.066Z,67.93
2023-05-24T07:29:02.914Z,67.82
2023-05-24T07:31:32.546Z,67.34
2023-05-24T07:34:00.509Z,67.27
2023-05-24T07:36:34.830Z,68.59
2023-05-24T07:39:05.262Z,68.25
2023-05-24T07:41:34.534Z,67.80
2023-05-24T07:44:02.434Z,68.41
2023-05-24T07:46:30.380Z,68.87
2023-05-24T07:48:58.327Z,68.99
2023-05-24T07:51:26.634Z,68.96
2023-05-24T07:53:54.596Z,69.43
2023-05-24T07:56:22.519Z,69.76
2023-05-24T07:58:51.849Z,70.22
2023-05-24T08:01:20.054Z,70.76
2023-05-24T08:03:48.521Z,70.99
2023-05-24T08:06:16.671Z,70.63
2023-05-24T08:08:45.871Z,70.77
2023-05-24T08:11:13.760Z,68.93
2023-05-24T08:13:41.665Z,67.97
2023-05-24T08:16:11.120Z,68.97
2023-05-24T08:18:39.082Z,69.79
2023-05-24T08:21:08.021Z,68.44
2023-05-24T08:23:36.387Z,68.16
2023-05-24T08:26:04.544Z,67.03
2023-05-24T08:28:32.912Z,66.42
2023-05-24T08:31:00.815Z,66.35
2023-05-24T08:33:30.110Z,65.69
2023-05-24T08:35:57.994Z,66.50
2023-05-24T08:38:25.871Z,65.93
2023-05-24T08:40:53.860Z,66.08
2023-05-24T08:43:22.582Z,66.94
2023-05-24T08:45:51.271Z,66.09
2023-05-24T08:48:20.265Z,66.31
2023-05-24T08:50:50.184Z,66.65
2023-05-24T08:53:19.399Z,66.63
2023-05-24T08:55:47.487Z,66.96
2023-05-24T08:58:15.685Z,66.31
2023-05-24T09:00:43.599Z,66.28
2023-05-24T09:03:12.411Z,66.04
2023-05-24T09:05:42.480Z,65.33
2023-05-24T09:08:13.473Z,64.24
2023-05-24T09:10:54.001Z,63.88
2023-05-24T09:13:24.316Z,62.52
2023-05-24T09:15:52.407Z,62.88
2023-05-24T09:18:21.055Z,62.00
2023-05-24T09:20:49.177Z,61.66
2023-05-24T09:23:18.987Z,62.45
2023-05-24T09:25:47.866Z,61.99
2023-05-24T09:28:17.802Z,61.82
2023-05-24T09:30:46.537Z,62.53
2023-05-24T09:33:14.468Z,62.49
2023-05-24T09:35:44.257Z,61.83
2023-05-24T09:38:19.708Z,60.84
2023-05-24T09:40:47.848Z,60.39
2023-05-24T09:43:15.763Z,60.83
2023-05-24T09:45:46.937Z,60.52
2023-05-24T09:48:16.589Z,61.14
2023-05-24T09:50:47.582Z,61.40
2023-05-24T09:53:19.874Z,62.13
2023-05-24T09:55:48.869Z,61.85
2023-05-24T09:58:18.266Z,62.54
2023-05-24T10:00:47.231Z,62.85
2023-05-24T10:03:15.678Z,62.43
2023-05-24T10:05:45.850Z,62.92
2023-05-24T10:08:14.310Z,63.21
2023-05-24T10:10:44.434Z,63.38
2023-05-24T10:13:15.696Z,63.90
2023-05-24T10:15:44.045Z,63.37
2023-05-24T10:18:13.860Z,62.92
2023-05-24T10:20:43.223Z,62.33
2023-05-24T10:23:15.307Z,62.12
2023-05-24T10:25:56.487Z,61.37
2023-05-24T10:28:26.121Z,61.57
2023-05-24T10:31:04.280Z,62.07
2023-05-24T10:33:36.146Z,61.66
2023-05-24T10:36:07.189Z,61.15
2023-05-24T10:38:39.667Z,61.93
2023-05-24T10:41:09.357Z,61.16
2023-05-24T10:43:37.980Z,61.25
2023-05-24T10:46:09.206Z,60.78
2023-05-24T10:48:41.129Z,59.84
2023-05-24T10:51:32.836Z,60.45
2023-05-24T10:54:14.044Z,60.17
2023-05-24T10:56:45.680Z,60.69
2023-05-24T10:59:47.074Z,60.91
2023-05-24T11:02:16.550Z,60.59
2023-05-24T11:04:49.098Z,61.54
2023-05-24T11:07:19.654Z,60.78
2023-05-24T11:09:53.211Z,61.10
2023-05-24T11:12:22.684Z,60.32
2023-05-24T11:14:52.547Z,60.28
2023-05-24T11:17:22.869Z,60.53
2023-05-24T11:19:52.904Z,60.60
2023-05-24T11:22:22.649Z,60.05
2023-05-24T11:24:51.729Z,59.46
2023-05-24T11:27:19.619Z,59.32
2023-05-24T11:29:59.123Z,58.71
2023-05-24T11:32:27.619Z,58.73
2023-05-24T11:34:56.235Z,57.67
2023-05-24T11:37:35.160Z,58.42
2023-05-24T11:40:13.160Z,57.80
2023-05-24T11:42:41.157Z,56.20
2023-05-24T11:45:11.845Z,54.40
2023-05-24T11:47:41.660Z,53.76
2023-05-24T11:50:10.453Z,53.52
2023-05-24T11:52:40.177Z,53.97
2023-05-24T11:55:08.873Z,54.27
2023-05-24T11:57:40.075Z,53.68
2023-05-24T12:00:16.972Z,53.83
2023-05-24T12:02:45.677Z,52.82
2023-05-24T12:05:14.381Z,53.02
2023-05-24T12:07:45.102Z,52.58
2023-05-24T12:10:14.046Z,52.66
2023-05-24T12:12:46.269Z,53.05
2023-05-24T12:15:18.496Z,52.60
2023-05-24T12:17:50.207Z,52.41
2023-05-24T12:20:20.354Z,53.55
2023-05-24T12:22:53.033Z,53.26
2023-05-24T12:25:21.913Z,53.28
2023-05-24T12:27:55.752Z,53.97
2023-05-24T12:30:26.355Z,53.61
2023-05-24T12:32:54.879Z,54.23
2023-05-24T12:35:23.152Z,54.05
2023-05-24T12:37:51.681Z,54.07
2023-05-24T12:40:21.947Z,53.33
2023-05-24T12:42:53.336Z,52.98
2023-05-24T12:45:25.767Z,52.74
2023-05-24T12:47:55.849Z,52.70
2023-05-24T12:50:25.807Z,53.22
2023-05-24T12:52:54.333Z,52.87
2023-05-24T12:55:25.191Z,52.33
2023-05-24T12:57:54.500Z,52.35
2023-05-24T13:00:24.303Z,53.22
2023-05-24T13:02:54.769Z,52.53
2023-05-24T13:05:24.723Z,52.15
2023-05-24T13:07:53.625Z,52.03
2023-05-24T13:10:21.551Z,52.67
2023-05-24T13:12:49.607Z,52.43
2023-05-24T13:15:19.426Z,51.57
2023-05-24T13:17:47.792Z,52.16
2023-05-24T13:20:16.035Z,51.64
2023-05-24T13:22:45.334Z,50.58
2023-05-24T13:25:13.294Z,50.30
2023-05-24T13:27:41.314Z,49.41
2023-05-24T13:30:10.366Z,49.58
2023-05-24T13:32:41.036Z,49.54
2023-05-24T13:35:09.965Z,49.65
2023-05-24T13:37:38.079Z,49.84
2023-05-24T13:40:09.067Z,48.96
2023-05-24T13:42:37.075Z,49.26
2023-05-24T13:45:06.038Z,49.21
2023-05-24T13:47:39.843Z,47.89
2023-05-24T13:50:09.208Z,48.01
2023-05-24T13:52:37.864Z,48.48
2023-05-24T13:55:08.964Z,48.49
2023-05-24T13:57:50.499Z,49.20
2023-05-24T14:00:20.515Z,49.70
2023-05-24T14:02:48.904Z,48.26
2023-05-24T14:05:27.599Z,48.25
2023-05-24T14:07:57.465Z,48.57
2023-05-24T14:10:26.987Z,48.14
2023-05-24T14:13:12.768Z,48.32
2023-05-24T14:15:44.766Z,49.13
2023-05-24T14:18:12.885Z,49.62
2023-05-24T14:20:40.935Z,50.43
2023-05-24T14:23:10.034Z,51.09
2023-05-24T14:25:41.345Z,51.46
2023-05-24T14:28:09.604Z,51.01
2023-05-24T14:30:38.561Z,50.88
2023-05-24T14:33:08.197Z,50.87
2023-05-24T14:35:39.639Z,50.51
2023-05-24T14:38:10.774Z,50.47
2023-05-24T14:40:40.922Z,50.59
2023-05-24T14:43:10.580Z,50.72
2023-05-24T14:45:41.360Z,50.91
2023-05-24T14:48:11.532Z,50.52
2023-05-24T14:50:40.821Z,49.95
2023-05-24T14:53:11.854Z,49.72
2023-05-24T14:55:43.062Z,49.48
2023-05-24T14:58:12.620Z,49.32
2023-05-24T15:00:41.672Z,48.87
2023-05-24T15:03:11.434Z,49.15
2023-05-24T15:05:39.956Z,49.21
2023-05-24T15:08:08.096Z,49.28
2023-05-24T15:10:36.121Z,48.92
2023-05-24T15:13:05.614Z,47.63
2023-05-24T15:15:33.474Z,47.27
2023-05-24T15:18:01.448Z,46.93
2023-05-24T15:20:29.682Z,46.26
2023-05-24T15:22:57.599Z,47.32
2023-05-24T15:25:25.554Z,47.20
2023-05-24T15:27:53.395Z,47.95
2023-05-24T15:30:24.048Z,47.70
2023-05-24T15:32:52.053Z,48.32
2023-05-24T15:35:20.064Z,49.07
2023-05-24T15:37:48.050Z,48.82
2023-05-24T15:40:16.250Z,48.73
2023-05-24T15:42:45.108Z,48.30
2023-05-24T15:45:13.263Z,48.59
2023-05-24T15:47:42.622Z,49.08
2023-05-24T15:50:11.426Z,47.95
2023-05-24T15:52:39.445Z,47.47
2023-05-24T15:55:08.628Z,47.81
2023-05-24T15:57:36.509Z,47.72
2023-05-24T16:00:05.355Z,46.89
2023-05-24T16:02:40.157Z,47.00
2023-05-24T16:05:10.304Z,46.99
2023-05-24T16:07:38.255Z,46.62
2023-05-24T16:10:07.100Z,46.27
2023-05-24T16:12:35.215Z,47.16
2023-05-24T16:15:03.167Z,47.58
2023-05-24T16:17:32.884Z,48.18
2023-05-24T16:20:01.341Z,48.75
2023-05-24T16:22:30.663Z,48.93
2023-05-24T16:24:58.500Z,49.16
2023-05-24T16:27:26.386Z,50.03
2023-05-24T16:29:54.318Z,50.56
2023-05-24T16:32:22.350Z,50.84
2023-05-24T16:34:56.654Z,50.46
2023-05-24T16:37:24.881Z,50.17
2023-05-24T16:39:54.082Z,50.22
2023-05-24T16:42:22.020Z,50.60
2023-05-24T16:44:49.953Z,49.98
2023-05-24T16:47:17.890Z,50.46
2023-05-24T16:49:45.791Z,50.31
2023-05-24T16:52:13.672Z,50.17
2023-05-24T16:54:41.560Z,49.71
2023-05-24T16:57:10.880Z,49.74
2023-05-24T16:59:38.841Z,49.39
2023-05-24T17:02:07.042Z,48.72
2023-05-24T17:04:35.438Z,48.68
2023-05-24T17:07:03.311Z,48.60
2023-05-24T17:09:31.142Z,49.60
2023-05-24T17:11:59.169Z,49.95
2023-05-24T17:14:28.434Z,50.50
2023-05-24T17:16:56.331Z,50.45
2023-05-24T17:19:25.245Z,50.64
2023-05-24T17:21:53.143Z,50.43
2023-05-24T17:24:22.375Z,50.62
2023-05-24T17:26:50.288Z,51.24
2023-05-24T17:29:18.163Z,51.43
2023-05-24T17:31:47.602Z,51.58
2023-05-24T17:34:16.901Z,52.06
2023-05-24T17:36:45.000Z,52.79
2023-05-24T17:39:13.011Z,53.25
2023-05-24T17:41:41.077Z,54.18
2023-05-24T17:44:09.197Z,54.83
2023-05-24T17:46:39.072Z,55.03
2023-05-24T17:49:12.577Z,55.49
2023-05-24T17:51:40.688Z,56.43
2023-05-24T17:54:08.523Z,56.91
2023-05-24T17:56:36.411Z,56.97
2023-05-24T17:59:04.335Z,57.73
2023-05-24T18:01:32.402Z,57.55
2023-05-24T18:04:01.046Z,57.68
2023-05-24T18:06:30.901Z,58.37
2023-05-24T18:08:58.914Z,58.70
2023-05-24T18:11:27.750Z,59.37
2023-05-24T18:13:55.838Z,59.44
2023-05-24T18:16:24.079Z,59.69
2023-05-24T18:18:52.079Z,60.05
2023-05-24T18:21:20.042Z,60.29
2023-05-24T18:23:49.411Z,60.45
2023-05-24T18:26:17.776Z,60.80
2023-05-24T18:28:45.852Z,61.04
2023-05-24T18:31:14.838Z,61.48
2023-05-24T18:33:43.319Z,61.84
2023-05-24T18:36:12.497Z,61.78
2023-05-24T18:38:40.873Z,62.10
2023-05-24T18:41:11.920Z,62.42
2023-05-24T18:43:40.196Z,62.62
2023-05-24T18:46:09.112Z,62.94
2023-05-24T18:48:37.083Z,63.32
2023-05-24T18:51:06.428Z,63.26
2023-05-24T18:53:34.642Z,63.70
2023-05-24T18:56:02.653Z,63.84
2023-05-24T18:58:32.024Z,64.02
2023-05-24T19:00:59.953Z,64.07
2023-05-24T19:03:28.270Z,64.52
2023-05-24T19:05:56.349Z,64.75
2023-05-24T19:08:24.206Z,64.74
2023-05-24T19:10:52.060Z,64.61
2023-05-24T19:13:19.917Z,64.58
2023-05-24T19:15:49.240Z,64.94
2023-05-24T19:18:17.204Z,64.66
2023-05-24T19:20:45.126Z,64.86
2023-05-24T19:23:13.182Z,64.84
2023-05-24T19:25:42.181Z,65.17
2023-05-24T19:28:11.874Z,65.17
2023-05-24T19:30:39.807Z,64.91
2023-05-24T19:33:09.038Z,64.48
2023-05-24T19:35:37.465Z,65.13
2023-05-24T19:38:05.340Z,64.61
2023-05-24T19:40:33.365Z,65.09
2023-05-24T19:43:03.968Z,64.88
2023-05-24T19:45:31.926Z,64.96
2023-05-24T19:47:59.833Z,64.32
2023-05-24T19:50:31.100Z,64.39
2023-05-24T19:53:02.418Z,64.88
2023-05-24T19:55:30.719Z,64.52
2023-05-24T19:57:58.712Z,64.30
2023-05-24T20:00:26.639Z,63.28
2023-05-24T20:02:54.799Z,63.69
2023-05-24T20:05:22.964Z,64.06
2023-05-24T20:07:52.742Z,63.35
2023-05-24T20:10:20.720Z,63.20
2023-05-24T20:12:48.639Z,62.98
2023-05-24T20:15:17.425Z,62.77
2023-05-24T20:17:46.634Z,62.16
2023-05-24T20:20:14.815Z,62.10
2023-05-24T20:22:42.916Z,61.92
2023-05-24T20:25:12.303Z,61.69
2023-05-24T20:27:41.887Z,61.72
2023-05-24T20:30:11.052Z,61.72
2023-05-24T20:32:39.041Z,61.71
2023-05-24T20:35:08.360Z,61.61
2023-05-24T20:37:36.436Z,61.69
2023-05-24T20:40:05.316Z,61.64
2023-05-24T20:42:35.615Z,61.44
2023-05-24T20:45:04.633Z,61.63
2023-05-24T20:47:32.626Z,61.61
2023-05-24T20:50:00.573Z,62.36
2023-05-24T20:52:28.559Z,62.27
2023-05-24T20:54:56.618Z,62.15
2023-05-24T20:57:24.547Z,62.22
2023-05-24T20:59:53.858Z,62.19
2023-05-24T21:02:21.978Z,62.23
2023-05-24T21:04:50.045Z,62.41
2023-05-24T21:07:18.143Z,62.37
2023-05-24T21:09:46.216Z,62.51
2023-05-24T21:12:14.139Z,62.58
2023-05-24T21:14:42.275Z,62.71
2023-05-24T21:17:14.074Z,62.98
2023-05-24T21:19:42.596Z,63.04
2023-05-24T21:22:10.537Z,63.12
2023-05-24T21:24:38.406Z,63.03
2023-05-24T21:27:06.441Z,63.03
2023-05-24T21:29:37.880Z,63.14
2023-05-24T21:32:06.061Z,63.09
2023-05-24T21:34:36.592Z,63.21
2023-05-24T21:37:05.385Z,63.58
2023-05-24T21:39:33.632Z,63.64
2023-05-24T21:42:02.210Z,63.68
2023-05-24T21:44:30.226Z,63.50
2023-05-24T21:46:58.232Z,63.60
2023-05-24T21:49:27.530Z,63.70
2023-05-24T21:51:56.926Z,64.04
2023-05-24T21:54:24.930Z,64.30
2023-05-24T21:56:52.895Z,64.86
2023-05-24T21:59:22.021Z,65.20
2023-05-24T22:01:49.931Z,64.85
2023-05-24T22:04:17.965Z,65.32
2023-05-24T22:06:46.126Z,65.49
2023-05-24T22:09:15.622Z,65.48
2023-05-24T22:11:43.573Z,65.14
2023-05-24T22:14:11.565Z,65.45
2023-05-24T22:16:39.667Z,65.46
2023-05-24T22:19:14.392Z,65.56
2023-05-24T22:21:42.832Z,65.73
2023-05-24T22:24:11.212Z,65.85
2023-05-24T22:26:41.586Z,66.25
2023-05-24T22:29:09.726Z,66.08
2023-05-24T22:31:37.626Z,65.91
2023-05-24T22:34:06.021Z,65.93
2023-05-24T22:36:34.093Z,66.29
2023-05-24T22:39:02.203Z,66.43
2023-05-24T22:41:30.349Z,66.35
2023-05-24T22:43:59.712Z,66.42
2023-05-24T22:46:27.701Z,66.45
2023-05-24T22:48:56.771Z,67.26
2023-05-24T22:51:25.022Z,67.78
2023-05-24T22:53:54.635Z,67.78
2023-05-24T22:56:22.517Z,68.15
2023-05-24T22:58:53.237Z,68.11
2023-05-24T23:01:22.519Z,68.46
2023-05-24T23:03:50.488Z,68.29
2023-05-24T23:06:21.003Z,67.66
2023-05-24T23:08:49.831Z,68.45
2023-05-24T23:11:17.720Z,68.38
2023-05-24T23:13:46.160Z,68.51
2023-05-24T23:16:18.025Z,68.35
2023-05-24T23:18:47.521Z,68.82
2023-05-24T23:21:16.683Z,69.04
2023-05-24T23:23:46.158Z,68.67
2023-05-24T23:26:14.089Z,69.00
2023-05-24T23:28:42.062Z,68.22
2023-05-24T23:31:10.064Z,68.48
2023-05-24T23:33:37.946Z,68.21
2023-05-24T23:36:09.804Z,68.41
2023-05-24T23:38:37.866Z,68.68
2023-05-24T23:41:05.908Z,69.03
2023-05-24T23:43:33.856Z,68.65
2023-05-24T23:46:01.757Z,68.33
2023-05-24T23:48:29.777Z,68.52
2023-05-24T23:50:57.717Z,68.49
2023-05-24T23:53:27.065Z,68.72
2023-05-24T23:55:54.992Z,68.85
2023-05-24T23:58:22.873Z,68.71
